sensor_id;sensor_type;location;lat;lon;timestamp;P1;durP1;ratioP1;P2;durP2;ratioP2
30169;SDS011;46426;51.368;5.254;2023-12-07T00:00:08;9.33;;;7.30;;
30169;SDS011;46426;51.368;5.254;2023-12-07T00:00:40;9.70;;;7.33;;
30169;SDS011;46426;51.368;5.254;2023-12-07T00:01:13;10.93;;;7.90;;
30169;SDS011;46426;51.368;5.254;2023-12-07T00:01:45;11.00;;;7.53;;
30169;SDS011;46426;51.368;5.254;2023-12-07T00:02:17;9.60;;;6.87;;
30169;SDS011;46426;51.368;5.254;2023-12-07T00:02:49;9.47;;;7.30;;
30169;SDS011;46426;51.368;5.254;2023-12-07T00:03:22;10.23;;;7.70;;
30169;SDS011;46426;51.368;5.254;2023-12-07T00:03:54;9.93;;;7.10;;
30169;SDS011;46426;51.368;5.254;2023-12-07T00:04:26;9.43;;;7.03;;
30169;SDS011;46426;51.368;5.254;2023-12-07T00:04:58;10.20;;;7.03;;
30169;SDS011;46426;51.368;5.254;2023-12-07T00:05:30;10.13;;;7.50;;
30169;SDS011;46426;51.368;5.254;2023-12-07T00:06:02;10.17;;;7.27;;
30169;SDS011;46426;51.368;5.254;2023-12-07T00:06:35;7.27;;;5.90;;
30169;SDS011;46426;51.368;5.254;2023-12-07T00:07:07;8.57;;;7.03;;
30169;SDS011;46426;51.368;5.254;2023-12-07T00:07:39;8.17;;;6.90;;
30169;SDS011;46426;51.368;5.254;2023-12-07T00:08:11;9.03;;;7.10;;
30169;SDS011;46426;51.368;5.254;2023-12-07T00:08:43;8.67;;;6.83;;
30169;SDS011;46426;51.368;5.254;2023-12-07T00:09:15;7.83;;;6.30;;
30169;SDS011;46426;51.368;5.254;2023-12-07T00:09:48;9.63;;;7.67;;
30169;SDS011;46426;51.368;5.254;2023-12-07T00:10:20;9.50;;;6.97;;
30169;SDS011;46426;51.368;5.254;2023-12-07T00:10:52;8.53;;;7.17;;
30169;SDS011;46426;51.368;5.254;2023-12-07T00:11:24;8.80;;;7.03;;
30169;SDS011;46426;51.368;5.254;2023-12-07T00:11:56;9.07;;;7.33;;
30169;SDS011;46426;51.368;5.254;2023-12-07T00:12:28;9.43;;;7.40;;
30169;SDS011;46426;51.368;5.254;2023-12-07T00:13:01;8.90;;;7.33;;
30169;SDS011;46426;51.368;5.254;2023-12-07T00:13:33;8.07;;;6.80;;
30169;SDS011;46426;51.368;5.254;2023-12-07T00:14:05;8.63;;;6.40;;
30169;SDS011;46426;51.368;5.254;2023-12-07T00:14:37;9.10;;;7.57;;
30169;SDS011;46426;51.368;5.254;2023-12-07T00:15:09;9.33;;;7.70;;
30169;SDS011;46426;51.368;5.254;2023-12-07T00:15:42;7.57;;;6.53;;
30169;SDS011;46426;51.368;5.254;2023-12-07T00:16:14;8.20;;;6.57;;
30169;SDS011;46426;51.368;5.254;2023-12-07T00:16:46;9.43;;;7.10;;
30169;SDS011;46426;51.368;5.254;2023-12-07T00:17:18;10.10;;;6.90;;
30169;SDS011;46426;51.368;5.254;2023-12-07T00:17:50;9.47;;;7.10;;
30169;SDS011;46426;51.368;5.254;2023-12-07T00:18:23;9.60;;;6.70;;
30169;SDS011;46426;51.368;5.254;2023-12-07T00:18:55;8.07;;;6.60;;
30169;SDS011;46426;51.368;5.254;2023-12-07T00:19:27;9.63;;;6.87;;
30169;SDS011;46426;51.368;5.254;2023-12-07T00:19:59;8.43;;;7.53;;
30169;SDS011;46426;51.368;5.254;2023-12-07T00:20:32;9.47;;;6.93;;
30169;SDS011;46426;51.368;5.254;2023-12-07T00:21:04;9.57;;;7.27;;
30169;SDS011;46426;51.368;5.254;2023-12-07T00:21:36;7.53;;;6.50;;
30169;SDS011;46426;51.368;5.254;2023-12-07T00:22:08;9.80;;;6.67;;
30169;SDS011;46426;51.368;5.254;2023-12-07T00:22:40;7.47;;;6.30;;
30169;SDS011;46426;51.368;5.254;2023-12-07T00:23:13;9.50;;;6.80;;
30169;SDS011;46426;51.368;5.254;2023-12-07T00:23:45;8.97;;;6.87;;
30169;SDS011;46426;51.368;5.254;2023-12-07T00:24:17;8.63;;;6.50;;
30169;SDS011;46426;51.368;5.254;2023-12-07T00:24:50;7.37;;;6.37;;
30169;SDS011;46426;51.368;5.254;2023-12-07T00:25:22;8.80;;;6.47;;
30169;SDS011;46426;51.368;5.254;2023-12-07T00:25:54;8.83;;;6.70;;
30169;SDS011;46426;51.368;5.254;2023-12-07T00:26:28;7.20;;;6.40;;
30169;SDS011;46426;51.368;5.254;2023-12-07T00:27:00;9.23;;;7.23;;
30169;SDS011;46426;51.368;5.254;2023-12-07T00:27:32;8.57;;;6.83;;
30169;SDS011;46426;51.368;5.254;2023-12-07T00:28:04;9.27;;;6.63;;
30169;SDS011;46426;51.368;5.254;2023-12-07T00:28:37;8.23;;;6.40;;
30169;SDS011;46426;51.368;5.254;2023-12-07T00:29:09;6.90;;;6.00;;
30169;SDS011;46426;51.368;5.254;2023-12-07T00:29:41;7.60;;;6.67;;
30169;SDS011;46426;51.368;5.254;2023-12-07T00:30:13;8.13;;;6.37;;
30169;SDS011;46426;51.368;5.254;2023-12-07T00:30:46;7.63;;;6.43;;
30169;SDS011;46426;51.368;5.254;2023-12-07T00:31:18;9.13;;;6.37;;
30169;SDS011;46426;51.368;5.254;2023-12-07T00:31:52;8.13;;;7.03;;
30169;SDS011;46426;51.368;5.254;2023-12-07T00:32:24;7.80;;;6.50;;
30169;SDS011;46426;51.368;5.254;2023-12-07T00:32:57;8.73;;;6.47;;
30169;SDS011;46426;51.368;5.254;2023-12-07T00:33:30;9.20;;;6.53;;
30169;SDS011;46426;51.368;5.254;2023-12-07T00:34:02;9.10;;;6.20;;
30169;SDS011;46426;51.368;5.254;2023-12-07T00:34:34;8.57;;;6.83;;
30169;SDS011;46426;51.368;5.254;2023-12-07T00:35:06;8.17;;;6.90;;
30169;SDS011;46426;51.368;5.254;2023-12-07T00:35:39;8.30;;;5.70;;
30169;SDS011;46426;51.368;5.254;2023-12-07T00:36:12;9.53;;;6.10;;
30169;SDS011;46426;51.368;5.254;2023-12-07T00:36:44;7.93;;;6.77;;
30169;SDS011;46426;51.368;5.254;2023-12-07T00:37:16;8.23;;;6.03;;
30169;SDS011;46426;51.368;5.254;2023-12-07T00:37:48;8.03;;;6.00;;
30169;SDS011;46426;51.368;5.254;2023-12-07T00:38:20;8.17;;;6.70;;
30169;SDS011;46426;51.368;5.254;2023-12-07T00:38:52;9.40;;;6.13;;
30169;SDS011;46426;51.368;5.254;2023-12-07T00:39:25;8.17;;;6.27;;
30169;SDS011;46426;51.368;5.254;2023-12-07T00:39:57;7.17;;;5.67;;
30169;SDS011;46426;51.368;5.254;2023-12-07T00:40:29;7.30;;;6.10;;
30169;SDS011;46426;51.368;5.254;2023-12-07T00:41:01;8.97;;;6.53;;
30169;SDS011;46426;51.368;5.254;2023-12-07T00:41:33;7.73;;;6.20;;
30169;SDS011;46426;51.368;5.254;2023-12-07T00:42:05;7.83;;;6.50;;
30169;SDS011;46426;51.368;5.254;2023-12-07T00:42:37;7.50;;;6.37;;
30169;SDS011;46426;51.368;5.254;2023-12-07T00:43:10;7.83;;;6.33;;
30169;SDS011;46426;51.368;5.254;2023-12-07T00:43:42;8.73;;;6.57;;
30169;SDS011;46426;51.368;5.254;2023-12-07T00:44:14;8.00;;;6.07;;
30169;SDS011;46426;51.368;5.254;2023-12-07T00:44:46;9.20;;;6.50;;
30169;SDS011;46426;51.368;5.254;2023-12-07T00:45:18;8.47;;;6.07;;
30169;SDS011;46426;51.368;5.254;2023-12-07T00:45:50;6.73;;;6.03;;
30169;SDS011;46426;51.368;5.254;2023-12-07T00:46:22;8.10;;;6.20;;
30169;SDS011;46426;51.368;5.254;2023-12-07T00:46:55;8.20;;;6.47;;
30169;SDS011;46426;51.368;5.254;2023-12-07T00:47:27;7.67;;;6.67;;
30169;SDS011;46426;51.368;5.254;2023-12-07T00:47:59;10.07;;;6.07;;
30169;SDS011;46426;51.368;5.254;2023-12-07T00:48:31;8.37;;;6.10;;
30169;SDS011;46426;51.368;5.254;2023-12-07T00:49:03;9.27;;;6.10;;
30169;SDS011;46426;51.368;5.254;2023-12-07T00:49:39;8.53;;;6.53;;
30169;SDS011;46426;51.368;5.254;2023-12-07T00:50:14;9.13;;;5.77;;
30169;SDS011;46426;51.368;5.254;2023-12-07T00:50:46;8.93;;;6.57;;
30169;SDS011;46426;51.368;5.254;2023-12-07T00:51:19;7.40;;;6.20;;
30169;SDS011;46426;51.368;5.254;2023-12-07T00:51:51;7.17;;;6.10;;
30169;SDS011;46426;51.368;5.254;2023-12-07T00:52:23;7.70;;;6.07;;
30169;SDS011;46426;51.368;5.254;2023-12-07T00:52:56;8.90;;;6.57;;
30169;SDS011;46426;51.368;5.254;2023-12-07T00:53:28;6.80;;;6.10;;
30169;SDS011;46426;51.368;5.254;2023-12-07T00:54:00;9.47;;;6.60;;
30169;SDS011;46426;51.368;5.254;2023-12-07T00:54:32;9.10;;;6.77;;
30169;SDS011;46426;51.368;5.254;2023-12-07T00:55:04;7.67;;;6.13;;
30169;SDS011;46426;51.368;5.254;2023-12-07T00:55:43;7.10;;;5.47;;
30169;SDS011;46426;51.368;5.254;2023-12-07T00:56:15;7.10;;;5.80;;
30169;SDS011;46426;51.368;5.254;2023-12-07T00:56:47;8.57;;;5.93;;
30169;SDS011;46426;51.368;5.254;2023-12-07T00:57:20;8.17;;;6.43;;
30169;SDS011;46426;51.368;5.254;2023-12-07T00:57:52;7.83;;;6.20;;
30169;SDS011;46426;51.368;5.254;2023-12-07T00:58:24;6.17;;;5.43;;
30169;SDS011;46426;51.368;5.254;2023-12-07T00:58:56;7.50;;;6.13;;
30169;SDS011;46426;51.368;5.254;2023-12-07T00:59:28;7.13;;;6.20;;
30169;SDS011;46426;51.368;5.254;2023-12-07T01:00:06;6.93;;;6.17;;
30169;SDS011;46426;51.368;5.254;2023-12-07T01:00:38;7.50;;;6.20;;
30169;SDS011;46426;51.368;5.254;2023-12-07T01:01:11;6.90;;;5.87;;
30169;SDS011;46426;51.368;5.254;2023-12-07T01:01:43;7.87;;;6.03;;
30169;SDS011;46426;51.368;5.254;2023-12-07T01:02:15;8.63;;;6.13;;
30169;SDS011;46426;51.368;5.254;2023-12-07T01:02:47;6.63;;;5.90;;
30169;SDS011;46426;51.368;5.254;2023-12-07T01:03:20;7.73;;;6.10;;
30169;SDS011;46426;51.368;5.254;2023-12-07T01:03:52;7.57;;;6.23;;
30169;SDS011;46426;51.368;5.254;2023-12-07T01:04:24;7.57;;;6.23;;
30169;SDS011;46426;51.368;5.254;2023-12-07T01:04:56;6.97;;;6.03;;
30169;SDS011;46426;51.368;5.254;2023-12-07T01:05:29;6.97;;;6.10;;
30169;SDS011;46426;51.368;5.254;2023-12-07T01:06:01;7.53;;;5.97;;
30169;SDS011;46426;51.368;5.254;2023-12-07T01:06:33;6.90;;;5.40;;
30169;SDS011;46426;51.368;5.254;2023-12-07T01:07:05;6.87;;;5.47;;
30169;SDS011;46426;51.368;5.254;2023-12-07T01:07:37;6.80;;;6.10;;
30169;SDS011;46426;51.368;5.254;2023-12-07T01:08:10;7.33;;;5.73;;
30169;SDS011;46426;51.368;5.254;2023-12-07T01:08:42;7.87;;;6.23;;
30169;SDS011;46426;51.368;5.254;2023-12-07T01:09:15;7.53;;;5.80;;
30169;SDS011;46426;51.368;5.254;2023-12-07T01:09:47;5.80;;;5.20;;
30169;SDS011;46426;51.368;5.254;2023-12-07T01:10:19;7.80;;;6.37;;
30169;SDS011;46426;51.368;5.254;2023-12-07T01:10:51;7.17;;;6.07;;
30169;SDS011;46426;51.368;5.254;2023-12-07T01:11:23;6.57;;;5.70;;
30169;SDS011;46426;51.368;5.254;2023-12-07T01:11:55;6.27;;;5.63;;
30169;SDS011;46426;51.368;5.254;2023-12-07T01:12:27;7.30;;;6.07;;
30169;SDS011;46426;51.368;5.254;2023-12-07T01:12:59;7.67;;;6.03;;
30169;SDS011;46426;51.368;5.254;2023-12-07T01:13:31;6.57;;;5.70;;
30169;SDS011;46426;51.368;5.254;2023-12-07T01:14:04;6.43;;;5.83;;
30169;SDS011;46426;51.368;5.254;2023-12-07T01:14:36;7.87;;;6.23;;
30169;SDS011;46426;51.368;5.254;2023-12-07T01:15:08;6.63;;;5.83;;
30169;SDS011;46426;51.368;5.254;2023-12-07T01:15:40;7.40;;;5.60;;
30169;SDS011;46426;51.368;5.254;2023-12-07T01:16:12;7.07;;;5.33;;
30169;SDS011;46426;51.368;5.254;2023-12-07T01:16:45;7.87;;;5.23;;
30169;SDS011;46426;51.368;5.254;2023-12-07T01:17:17;8.23;;;6.33;;
30169;SDS011;46426;51.368;5.254;2023-12-07T01:17:49;6.60;;;5.90;;
30169;SDS011;46426;51.368;5.254;2023-12-07T01:18:21;8.30;;;6.10;;
30169;SDS011;46426;51.368;5.254;2023-12-07T01:18:54;6.67;;;5.67;;
30169;SDS011;46426;51.368;5.254;2023-12-07T01:19:26;7.17;;;5.70;;
30169;SDS011;46426;51.368;5.254;2023-12-07T01:19:59;6.83;;;5.97;;
30169;SDS011;46426;51.368;5.254;2023-12-07T01:20:31;7.63;;;5.80;;
30169;SDS011;46426;51.368;5.254;2023-12-07T01:21:03;7.10;;;6.37;;
30169;SDS011;46426;51.368;5.254;2023-12-07T01:21:36;6.67;;;5.87;;
30169;SDS011;46426;51.368;5.254;2023-12-07T01:22:08;6.57;;;5.87;;
30169;SDS011;46426;51.368;5.254;2023-12-07T01:22:40;7.63;;;6.30;;
30169;SDS011;46426;51.368;5.254;2023-12-07T01:23:13;6.53;;;5.50;;
30169;SDS011;46426;51.368;5.254;2023-12-07T01:23:47;7.37;;;5.93;;
30169;SDS011;46426;51.368;5.254;2023-12-07T01:24:27;8.00;;;6.30;;
30169;SDS011;46426;51.368;5.254;2023-12-07T01:25:01;7.83;;;5.60;;
30169;SDS011;46426;51.368;5.254;2023-12-07T01:25:33;6.10;;;5.37;;
30169;SDS011;46426;51.368;5.254;2023-12-07T01:26:05;7.27;;;5.87;;
30169;SDS011;46426;51.368;5.254;2023-12-07T01:26:39;6.97;;;5.73;;
30169;SDS011;46426;51.368;5.254;2023-12-07T01:27:11;7.13;;;6.23;;
30169;SDS011;46426;51.368;5.254;2023-12-07T01:27:43;6.80;;;6.10;;
30169;SDS011;46426;51.368;5.254;2023-12-07T01:28:16;8.17;;;6.07;;
30169;SDS011;46426;51.368;5.254;2023-12-07T01:28:48;9.27;;;5.93;;
30169;SDS011;46426;51.368;5.254;2023-12-07T01:29:20;7.30;;;5.83;;
30169;SDS011;46426;51.368;5.254;2023-12-07T01:29:53;8.40;;;6.13;;
30169;SDS011;46426;51.368;5.254;2023-12-07T01:30:25;7.23;;;5.60;;
30169;SDS011;46426;51.368;5.254;2023-12-07T01:30:57;8.87;;;5.93;;
30169;SDS011;46426;51.368;5.254;2023-12-07T01:31:29;7.30;;;5.97;;
30169;SDS011;46426;51.368;5.254;2023-12-07T01:32:01;6.97;;;6.27;;
30169;SDS011;46426;51.368;5.254;2023-12-07T01:32:34;7.50;;;6.10;;
30169;SDS011;46426;51.368;5.254;2023-12-07T01:33:06;7.70;;;5.70;;
30169;SDS011;46426;51.368;5.254;2023-12-07T01:33:38;7.30;;;6.27;;
30169;SDS011;46426;51.368;5.254;2023-12-07T01:34:11;7.00;;;5.77;;
30169;SDS011;46426;51.368;5.254;2023-12-07T01:34:43;8.67;;;6.00;;
30169;SDS011;46426;51.368;5.254;2023-12-07T01:35:15;8.30;;;5.90;;
30169;SDS011;46426;51.368;5.254;2023-12-07T01:35:48;7.43;;;6.20;;
30169;SDS011;46426;51.368;5.254;2023-12-07T01:36:20;7.50;;;5.90;;
30169;SDS011;46426;51.368;5.254;2023-12-07T01:36:52;7.20;;;6.00;;
30169;SDS011;46426;51.368;5.254;2023-12-07T01:37:24;8.33;;;5.93;;
30169;SDS011;46426;51.368;5.254;2023-12-07T01:37:56;9.80;;;6.57;;
30169;SDS011;46426;51.368;5.254;2023-12-07T01:38:29;9.57;;;6.63;;
30169;SDS011;46426;51.368;5.254;2023-12-07T01:39:01;8.57;;;6.50;;
30169;SDS011;46426;51.368;5.254;2023-12-07T01:39:33;8.00;;;5.63;;
30169;SDS011;46426;51.368;5.254;2023-12-07T01:40:05;6.63;;;5.93;;
30169;SDS011;46426;51.368;5.254;2023-12-07T01:40:41;6.80;;;5.90;;
30169;SDS011;46426;51.368;5.254;2023-12-07T01:41:17;8.53;;;6.70;;
30169;SDS011;46426;51.368;5.254;2023-12-07T01:41:51;9.07;;;6.30;;
30169;SDS011;46426;51.368;5.254;2023-12-07T01:42:23;8.73;;;6.73;;
30169;SDS011;46426;51.368;5.254;2023-12-07T01:42:55;8.33;;;6.07;;
30169;SDS011;46426;51.368;5.254;2023-12-07T01:43:28;6.87;;;6.03;;
30169;SDS011;46426;51.368;5.254;2023-12-07T01:44:00;8.17;;;6.23;;
30169;SDS011;46426;51.368;5.254;2023-12-07T01:44:32;6.80;;;6.03;;
30169;SDS011;46426;51.368;5.254;2023-12-07T01:45:05;8.47;;;6.83;;
30169;SDS011;46426;51.368;5.254;2023-12-07T01:45:37;8.80;;;6.50;;
30169;SDS011;46426;51.368;5.254;2023-12-07T01:46:10;7.43;;;6.63;;
30169;SDS011;46426;51.368;5.254;2023-12-07T01:46:42;8.47;;;6.07;;
30169;SDS011;46426;51.368;5.254;2023-12-07T01:47:14;7.63;;;6.10;;
30169;SDS011;46426;51.368;5.254;2023-12-07T01:47:47;8.53;;;7.00;;
30169;SDS011;46426;51.368;5.254;2023-12-07T01:48:22;7.83;;;6.83;;
30169;SDS011;46426;51.368;5.254;2023-12-07T01:48:55;8.23;;;6.50;;
30169;SDS011;46426;51.368;5.254;2023-12-07T01:49:27;8.73;;;6.77;;
30169;SDS011;46426;51.368;5.254;2023-12-07T01:50:00;7.63;;;6.47;;
30169;SDS011;46426;51.368;5.254;2023-12-07T01:50:32;9.13;;;6.50;;
30169;SDS011;46426;51.368;5.254;2023-12-07T01:51:05;7.50;;;6.00;;
30169;SDS011;46426;51.368;5.254;2023-12-07T01:51:38;7.07;;;6.10;;
30169;SDS011;46426;51.368;5.254;2023-12-07T01:52:10;7.03;;;6.33;;
30169;SDS011;46426;51.368;5.254;2023-12-07T01:52:44;6.60;;;5.90;;
30169;SDS011;46426;51.368;5.254;2023-12-07T01:53:17;9.33;;;6.37;;
30169;SDS011;46426;51.368;5.254;2023-12-07T01:53:49;8.97;;;7.03;;
30169;SDS011;46426;51.368;5.254;2023-12-07T01:54:22;7.10;;;6.40;;
30169;SDS011;46426;51.368;5.254;2023-12-07T01:54:54;7.17;;;5.87;;
30169;SDS011;46426;51.368;5.254;2023-12-07T01:55:26;6.83;;;6.13;;
30169;SDS011;46426;51.368;5.254;2023-12-07T01:55:59;7.67;;;6.73;;
30169;SDS011;46426;51.368;5.254;2023-12-07T01:56:31;7.33;;;6.47;;
30169;SDS011;46426;51.368;5.254;2023-12-07T01:57:03;8.47;;;7.47;;
30169;SDS011;46426;51.368;5.254;2023-12-07T01:57:36;7.30;;;6.50;;
30169;SDS011;46426;51.368;5.254;2023-12-07T01:58:08;7.07;;;6.00;;
30169;SDS011;46426;51.368;5.254;2023-12-07T01:58:42;7.63;;;6.63;;
30169;SDS011;46426;51.368;5.254;2023-12-07T01:59:14;8.23;;;6.43;;
30169;SDS011;46426;51.368;5.254;2023-12-07T01:59:46;8.60;;;6.57;;
30169;SDS011;46426;51.368;5.254;2023-12-07T02:00:18;8.00;;;6.57;;
30169;SDS011;46426;51.368;5.254;2023-12-07T02:00:51;6.77;;;5.87;;
30169;SDS011;46426;51.368;5.254;2023-12-07T02:01:23;8.10;;;6.30;;
30169;SDS011;46426;51.368;5.254;2023-12-07T02:01:55;6.53;;;5.50;;
30169;SDS011;46426;51.368;5.254;2023-12-07T02:02:27;7.53;;;6.40;;
30169;SDS011;46426;51.368;5.254;2023-12-07T02:03:00;6.97;;;6.10;;
30169;SDS011;46426;51.368;5.254;2023-12-07T02:03:32;7.33;;;6.30;;
30169;SDS011;46426;51.368;5.254;2023-12-07T02:04:04;9.23;;;6.53;;
30169;SDS011;46426;51.368;5.254;2023-12-07T02:04:37;6.83;;;6.13;;
30169;SDS011;46426;51.368;5.254;2023-12-07T02:05:09;7.07;;;6.37;;
30169;SDS011;46426;51.368;5.254;2023-12-07T02:05:42;7.20;;;6.07;;
30169;SDS011;46426;51.368;5.254;2023-12-07T02:06:15;7.97;;;6.33;;
30169;SDS011;46426;51.368;5.254;2023-12-07T02:06:48;7.40;;;6.50;;
30169;SDS011;46426;51.368;5.254;2023-12-07T02:07:20;6.90;;;5.80;;
30169;SDS011;46426;51.368;5.254;2023-12-07T02:07:53;7.23;;;6.00;;
30169;SDS011;46426;51.368;5.254;2023-12-07T02:08:25;8.00;;;6.47;;
30169;SDS011;46426;51.368;5.254;2023-12-07T02:08:57;7.40;;;6.60;;
30169;SDS011;46426;51.368;5.254;2023-12-07T02:09:29;7.23;;;6.20;;
30169;SDS011;46426;51.368;5.254;2023-12-07T02:10:02;6.70;;;6.00;;
30169;SDS011;46426;51.368;5.254;2023-12-07T02:10:35;7.20;;;6.50;;
30169;SDS011;46426;51.368;5.254;2023-12-07T02:11:08;7.30;;;6.30;;
30169;SDS011;46426;51.368;5.254;2023-12-07T02:11:40;7.07;;;5.87;;
30169;SDS011;46426;51.368;5.254;2023-12-07T02:12:12;7.13;;;5.90;;
30169;SDS011;46426;51.368;5.254;2023-12-07T02:12:45;8.20;;;6.53;;
30169;SDS011;46426;51.368;5.254;2023-12-07T02:13:18;7.17;;;5.93;;
30169;SDS011;46426;51.368;5.254;2023-12-07T02:13:51;7.40;;;6.20;;
30169;SDS011;46426;51.368;5.254;2023-12-07T02:14:27;7.10;;;6.40;;
30169;SDS011;46426;51.368;5.254;2023-12-07T02:15:00;7.07;;;6.37;;
30169;SDS011;46426;51.368;5.254;2023-12-07T02:15:36;8.90;;;6.63;;
30169;SDS011;46426;51.368;5.254;2023-12-07T02:16:11;7.13;;;6.17;;
30169;SDS011;46426;51.368;5.254;2023-12-07T02:16:48;6.77;;;5.97;;
30169;SDS011;46426;51.368;5.254;2023-12-07T02:17:24;6.23;;;5.60;;
30169;SDS011;46426;51.368;5.254;2023-12-07T02:18:37;8.37;;;6.57;;
30169;SDS011;46426;51.368;5.254;2023-12-07T02:21:16;7.03;;;6.33;;
30169;SDS011;46426;51.368;5.254;2023-12-07T02:21:52;7.23;;;5.67;;
30169;SDS011;46426;51.368;5.254;2023-12-07T02:22:32;7.27;;;6.53;;
30169;SDS011;46426;51.368;5.254;2023-12-07T02:23:06;6.80;;;6.10;;
30169;SDS011;46426;51.368;5.254;2023-12-07T02:23:39;6.77;;;6.07;;
30169;SDS011;46426;51.368;5.254;2023-12-07T02:24:23;6.30;;;5.70;;
30169;SDS011;46426;51.368;5.254;2023-12-07T02:25:03;6.50;;;5.90;;
30169;SDS011;46426;51.368;5.254;2023-12-07T02:25:36;7.27;;;6.57;;
30169;SDS011;46426;51.368;5.254;2023-12-07T02:26:12;6.70;;;6.07;;
30169;SDS011;46426;51.368;5.254;2023-12-07T02:26:45;7.00;;;6.30;;
30169;SDS011;46426;51.368;5.254;2023-12-07T02:27:17;6.97;;;6.27;;
30169;SDS011;46426;51.368;5.254;2023-12-07T02:27:49;6.70;;;5.90;;
30169;SDS011;46426;51.368;5.254;2023-12-07T02:28:21;6.70;;;6.00;;
30169;SDS011;46426;51.368;5.254;2023-12-07T02:28:53;7.80;;;7.03;;
30169;SDS011;46426;51.368;5.254;2023-12-07T02:29:26;7.83;;;6.70;;
30169;SDS011;46426;51.368;5.254;2023-12-07T02:29:58;7.10;;;6.40;;
30169;SDS011;46426;51.368;5.254;2023-12-07T02:30:30;6.53;;;5.93;;
30169;SDS011;46426;51.368;5.254;2023-12-07T02:31:02;8.57;;;5.90;;
30169;SDS011;46426;51.368;5.254;2023-12-07T02:31:35;6.47;;;5.77;;
30169;SDS011;46426;51.368;5.254;2023-12-07T02:32:07;6.50;;;5.90;;
30169;SDS011;46426;51.368;5.254;2023-12-07T02:32:39;6.33;;;5.67;;
30169;SDS011;46426;51.368;5.254;2023-12-07T02:33:12;7.00;;;5.93;;
30169;SDS011;46426;51.368;5.254;2023-12-07T02:33:44;6.80;;;6.10;;
30169;SDS011;46426;51.368;5.254;2023-12-07T02:34:16;6.13;;;5.50;;
30169;SDS011;46426;51.368;5.254;2023-12-07T02:34:49;6.77;;;6.17;;
30169;SDS011;46426;51.368;5.254;2023-12-07T02:35:21;7.23;;;6.10;;
30169;SDS011;46426;51.368;5.254;2023-12-07T02:35:53;6.40;;;5.80;;
30169;SDS011;46426;51.368;5.254;2023-12-07T02:36:27;6.73;;;5.93;;
30169;SDS011;46426;51.368;5.254;2023-12-07T02:37:00;6.83;;;5.80;;
30169;SDS011;46426;51.368;5.254;2023-12-07T02:37:35;6.40;;;5.73;;
30169;SDS011;46426;51.368;5.254;2023-12-07T02:38:09;6.80;;;6.10;;
30169;SDS011;46426;51.368;5.254;2023-12-07T02:38:42;6.10;;;5.50;;
30169;SDS011;46426;51.368;5.254;2023-12-07T02:39:15;6.00;;;5.40;;
30169;SDS011;46426;51.368;5.254;2023-12-07T02:39:48;6.80;;;5.70;;
30169;SDS011;46426;51.368;5.254;2023-12-07T02:40:24;6.57;;;5.80;;
30169;SDS011;46426;51.368;5.254;2023-12-07T02:40:57;6.67;;;5.97;;
30169;SDS011;46426;51.368;5.254;2023-12-07T02:41:31;6.10;;;5.50;;
30169;SDS011;46426;51.368;5.254;2023-12-07T02:42:04;6.70;;;5.70;;
30169;SDS011;46426;51.368;5.254;2023-12-07T02:42:39;6.63;;;5.97;;
30169;SDS011;46426;51.368;5.254;2023-12-07T02:43:15;6.40;;;5.67;;
30169;SDS011;46426;51.368;5.254;2023-12-07T02:43:47;5.93;;;5.33;;
30169;SDS011;46426;51.368;5.254;2023-12-07T02:44:19;6.27;;;5.67;;
30169;SDS011;46426;51.368;5.254;2023-12-07T02:44:52;6.50;;;5.90;;
30169;SDS011;46426;51.368;5.254;2023-12-07T02:45:25;6.20;;;5.60;;
30169;SDS011;46426;51.368;5.254;2023-12-07T02:45:58;6.13;;;5.53;;
30169;SDS011;46426;51.368;5.254;2023-12-07T02:46:30;6.20;;;5.60;;
30169;SDS011;46426;51.368;5.254;2023-12-07T02:47:02;6.83;;;6.07;;
30169;SDS011;46426;51.368;5.254;2023-12-07T02:47:35;6.63;;;5.93;;
30169;SDS011;46426;51.368;5.254;2023-12-07T02:48:07;6.00;;;5.40;;
30169;SDS011;46426;51.368;5.254;2023-12-07T02:48:39;6.10;;;5.50;;
30169;SDS011;46426;51.368;5.254;2023-12-07T02:49:12;7.57;;;6.53;;
30169;SDS011;46426;51.368;5.254;2023-12-07T02:49:44;6.00;;;5.40;;
30169;SDS011;46426;51.368;5.254;2023-12-07T02:50:16;6.87;;;6.13;;
30169;SDS011;46426;51.368;5.254;2023-12-07T02:50:48;6.37;;;5.77;;
30169;SDS011;46426;51.368;5.254;2023-12-07T02:51:21;6.40;;;5.60;;
30169;SDS011;46426;51.368;5.254;2023-12-07T02:51:53;6.27;;;5.67;;
30169;SDS011;46426;51.368;5.254;2023-12-07T02:52:25;6.40;;;5.70;;
30169;SDS011;46426;51.368;5.254;2023-12-07T02:52:57;5.47;;;4.97;;
30169;SDS011;46426;51.368;5.254;2023-12-07T02:53:30;7.10;;;5.50;;
30169;SDS011;46426;51.368;5.254;2023-12-07T02:54:02;6.80;;;6.10;;
30169;SDS011;46426;51.368;5.254;2023-12-07T02:54:34;6.30;;;5.20;;
30169;SDS011;46426;51.368;5.254;2023-12-07T02:55:06;6.33;;;5.70;;
30169;SDS011;46426;51.368;5.254;2023-12-07T02:55:39;5.87;;;5.37;;
30169;SDS011;46426;51.368;5.254;2023-12-07T02:56:11;6.20;;;5.60;;
30169;SDS011;46426;51.368;5.254;2023-12-07T02:56:43;6.30;;;5.63;;
30169;SDS011;46426;51.368;5.254;2023-12-07T02:57:15;6.57;;;5.87;;
30169;SDS011;46426;51.368;5.254;2023-12-07T02:57:47;6.57;;;5.87;;
30169;SDS011;46426;51.368;5.254;2023-12-07T02:58:19;6.40;;;5.80;;
30169;SDS011;46426;51.368;5.254;2023-12-07T02:58:52;6.20;;;5.60;;
30169;SDS011;46426;51.368;5.254;2023-12-07T02:59:24;6.70;;;6.03;;
30169;SDS011;46426;51.368;5.254;2023-12-07T02:59:56;6.67;;;6.07;;
30169;SDS011;46426;51.368;5.254;2023-12-07T03:00:28;6.80;;;5.60;;
30169;SDS011;46426;51.368;5.254;2023-12-07T03:01:00;5.93;;;5.43;;
30169;SDS011;46426;51.368;5.254;2023-12-07T03:01:33;6.87;;;6.17;;
30169;SDS011;46426;51.368;5.254;2023-12-07T03:02:05;6.20;;;5.60;;
30169;SDS011;46426;51.368;5.254;2023-12-07T03:02:38;6.20;;;5.60;;
30169;SDS011;46426;51.368;5.254;2023-12-07T03:03:11;6.10;;;5.30;;
30169;SDS011;46426;51.368;5.254;2023-12-07T03:03:43;6.47;;;5.83;;
30169;SDS011;46426;51.368;5.254;2023-12-07T03:04:15;5.40;;;4.90;;
30169;SDS011;46426;51.368;5.254;2023-12-07T03:04:47;6.00;;;5.40;;
30169;SDS011;46426;51.368;5.254;2023-12-07T03:05:20;6.73;;;5.30;;
30169;SDS011;46426;51.368;5.254;2023-12-07T03:05:52;5.67;;;5.17;;
30169;SDS011;46426;51.368;5.254;2023-12-07T03:06:24;6.20;;;5.60;;
30169;SDS011;46426;51.368;5.254;2023-12-07T03:06:56;6.03;;;5.43;;
30169;SDS011;46426;51.368;5.254;2023-12-07T03:07:29;6.40;;;5.80;;
30169;SDS011;46426;51.368;5.254;2023-12-07T03:08:01;6.17;;;5.57;;
30169;SDS011;46426;51.368;5.254;2023-12-07T03:08:33;6.40;;;5.73;;
30169;SDS011;46426;51.368;5.254;2023-12-07T03:09:05;6.67;;;5.60;;
30169;SDS011;46426;51.368;5.254;2023-12-07T03:09:37;6.23;;;5.50;;
30169;SDS011;46426;51.368;5.254;2023-12-07T03:10:09;6.00;;;5.40;;
30169;SDS011;46426;51.368;5.254;2023-12-07T03:10:42;6.07;;;5.57;;
30169;SDS011;46426;51.368;5.254;2023-12-07T03:11:14;6.37;;;5.77;;
30169;SDS011;46426;51.368;5.254;2023-12-07T03:11:49;6.30;;;5.77;;
30169;SDS011;46426;51.368;5.254;2023-12-07T03:12:21;5.97;;;5.30;;
30169;SDS011;46426;51.368;5.254;2023-12-07T03:12:53;6.57;;;5.87;;
30169;SDS011;46426;51.368;5.254;2023-12-07T03:13:25;6.67;;;5.50;;
30169;SDS011;46426;51.368;5.254;2023-12-07T03:13:57;6.33;;;5.67;;
30169;SDS011;46426;51.368;5.254;2023-12-07T03:14:30;5.23;;;4.77;;
30169;SDS011;46426;51.368;5.254;2023-12-07T03:15:02;5.97;;;5.37;;
30169;SDS011;46426;51.368;5.254;2023-12-07T03:15:34;4.93;;;4.53;;
30169;SDS011;46426;51.368;5.254;2023-12-07T03:16:07;5.73;;;5.23;;
30169;SDS011;46426;51.368;5.254;2023-12-07T03:16:39;6.13;;;5.53;;
30169;SDS011;46426;51.368;5.254;2023-12-07T03:17:11;6.77;;;6.10;;
30169;SDS011;46426;51.368;5.254;2023-12-07T03:17:43;6.07;;;5.13;;
30169;SDS011;46426;51.368;5.254;2023-12-07T03:18:16;5.60;;;5.10;;
30169;SDS011;46426;51.368;5.254;2023-12-07T03:18:48;6.27;;;5.77;;
30169;SDS011;46426;51.368;5.254;2023-12-07T03:19:20;5.70;;;5.20;;